This is the latest recevied weather packets stored in our database for station/object K7DC. If no packets are shown the sender has not sent any weather packets the latest 10 day(s).
| Time | Temp. | Humidity | Pressure | Rain* | Wind** | Luminosity | Snow |
|---|---|---|---|---|---|---|---|
| 1778007950 | 25° C | 38% | 1012.1 hPa | 0 mm | - | 1190 W/m² | - |
| 1778006130 | 24.44° C | 39% | 1012.5 hPa | 0 mm | - | 269 W/m² | - |
| 1778005827 | 24.44° C | 40% | 1012.4 hPa | 0 mm | - | 1067 W/m² | - |
| 1778005523 | 23.89° C | 43% | 1012.4 hPa | 0 mm | - | 1012 W/m² | - |
| 1778004615 | 22.78° C | 43% | 1012.7 hPa | 0 mm | - | 1007 W/m² | - |
| 1778002793 | 22.22° C | 50% | 1012.8 hPa | 0 mm | - | 292 W/m² | - |
| 1778002490 | 21.67° C | 53% | 1013 hPa | 0 mm | - | 219 W/m² | - |
| 1778002187 | 22.22° C | 52% | 1013 hPa | 0 mm | - | 267 W/m² | - |
| 1778001885 | 22.22° C | 51% | 1012.9 hPa | 0 mm | - | 273 W/m² | - |
| 1778001584 | 21.67° C | 57% | 1013 hPa | 0 mm | - | 317 W/m² | - |
| 1778001281 | 21.11° C | 57% | 1013 hPa | 0 mm | - | 925 W/m² | - |
| 1778000978 | 21.11° C | 61% | 1013.2 hPa | 0 mm | - | 371 W/m² | - |
| 1778000675 | 20.56° C | 59% | 1012.9 hPa | 0 mm | - | 300 W/m² | - |
| 1778000370 | 20° C | 62% | 1012.9 hPa | 0 mm | - | 582 W/m² | - |
| 1777999762 | 20° C | 63% | 1013.1 hPa | 0 mm | - | 874 W/m² | - |
| 1777999459 | 20.56° C | 62% | 1013.1 hPa | 0 mm | - | 843 W/m² | - |
| 1777999157 | 19.44° C | 65% | 1013.1 hPa | 0 mm | - | 216 W/m² | - |
| 1777998856 | 19.44° C | 65% | 1013.1 hPa | 0 mm | - | 519 W/m² | - |
| 1777998554 | 20° C | 64% | 1013 hPa | 0 mm | - | 389 W/m² | - |
| 1777998249 | 20° C | 68% | 1013.2 hPa | 0 mm | - | 382 W/m² | - |
| 1777997947 | 20.56° C | 63% | 1013.2 hPa | 0 mm | - | 347 W/m² | - |
| 1777997341 | 19.44° C | 68% | 1013.1 hPa | 0 mm | - | 884 W/m² | - |
| 1777997039 | 18.33° C | 73% | 1013.3 hPa | 0 mm | - | 389 W/m² | - |
| 1777996735 | 17.78° C | 75% | 1013.2 hPa | 0 mm | - | 312 W/m² | - |
| 1777996431 | 17.22° C | 77% | 1012.9 hPa | 0 mm | - | 236 W/m² | - |
* Rain latest hour (hover to see other rain measurements)
** Current wind speed in m/s (hover to see current wind gust speed)